Time;durP1;ratioP1;P1;durP2;ratioP2;P2;SDS_P1;SDS_P2;PMS_P1;PMS_P2;Temp;Humidity;BMP_temperature;BMP_pressure;BME280_temperature;BME280_humidity;BME280_pressure;Samples;Min_cycle;Max_cycle;Signal;HPM_P1;HPM_P2
2021/09/12 00:00:43;;;;;;;1.88;0.55;;;;;;;;;;4989598;28;20236;-61
2021/09/12 00:03:09;;;;;;;1.67;0.52;;;;;;;;;;4990861;28;20097;-61
2021/09/12 00:05:35;;;;;;;2.30;0.70;;;;;;;;;;4991545;28;20447;-59
2021/09/12 00:08:01;;;;;;;2.83;0.80;;;;;;;;;;4990892;28;20503;-60
2021/09/12 00:10:27;;;;;;;4.10;0.95;;;;;;;;;;4994003;28;20181;-59
2021/09/12 00:12:56;;;;;;;4.55;1.40;;;;;;;;;;4991165;28;20635;-60
2021/09/12 00:15:22;;;;;;;2.40;0.95;;;;;;;;;;4990889;28;20062;-60
2021/09/12 00:17:48;;;;;;;3.20;0.93;;;;;;;;;;4992065;28;20041;-61
2021/09/12 00:20:14;;;;;;;2.70;0.98;;;;;;;;;;4995434;28;20052;-60
2021/09/12 00:22:40;;;;;;;2.35;0.70;;;;;;;;;;4990465;28;21076;-60
2021/09/12 00:25:06;;;;;;;2.35;0.80;;;;;;;;;;4991913;28;20041;-60
2021/09/12 00:27:33;;;;;;;2.83;0.80;;;;;;;;;;4991386;28;20065;-61
2021/09/12 00:29:59;;;;;;;3.53;1.00;;;;;;;;;;4990464;28;20581;-61
2021/09/12 00:32:25;;;;;;;2.72;0.73;;;;;;;;;;4988333;28;20057;-62
2021/09/12 00:34:51;;;;;;;2.80;0.70;;;;;;;;;;4989907;28;20172;-61
2021/09/12 00:37:17;;;;;;;1.88;0.70;;;;;;;;;;4988570;28;20524;-59
2021/09/12 00:39:43;;;;;;;3.03;0.82;;;;;;;;;;4985931;28;20034;-60
2021/09/12 00:42:09;;;;;;;1.95;0.60;;;;;;;;;;5002183;28;20056;-60
2021/09/12 00:44:35;;;;;;;2.45;0.80;;;;;;;;;;4988906;28;20788;-61
2021/09/12 00:47:08;;;;;;;4.03;0.85;;;;;;;;;;4987544;28;20135;-60
2021/09/12 00:49:34;;;;;;;2.10;0.60;;;;;;;;;;4987606;28;20117;-61
2021/09/12 00:52:01;;;;;;;2.05;0.70;;;;;;;;;;4989462;28;20049;-61
2021/09/12 00:54:28;;;;;;;3.42;0.70;;;;;;;;;;4989631;28;20108;-61
2021/09/12 00:56:53;;;;;;;2.20;0.63;;;;;;;;;;4987755;28;20037;-61
2021/09/12 00:59:21;;;;;;;2.30;0.77;;;;;;;;;;4986621;28;20843;-61
2021/09/12 01:01:48;;;;;;;5.20;1.63;;;;;;;;;;4987935;28;20046;-59
2021/09/12 01:04:13;;;;;;;4.47;0.90;;;;;;;;;;4988165;28;20054;-58
2021/09/12 01:06:39;;;;;;;4.03;1.30;;;;;;;;;;4987602;28;20125;-60
2021/09/12 01:09:05;;;;;;;3.60;0.80;;;;;;;;;;4987289;28;20132;-60
2021/09/12 01:11:31;;;;;;;2.85;1.00;;;;;;;;;;4986023;28;20057;-61
2021/09/12 01:13:57;;;;;;;3.05;0.93;;;;;;;;;;4987308;28;20462;-60
2021/09/12 01:16:23;;;;;;;2.55;0.90;;;;;;;;;;4984717;28;20057;-60
2021/09/12 01:18:48;;;;;;;2.80;1.10;;;;;;;;;;4987805;28;20566;-60
2021/09/12 01:21:16;;;;;;;4.05;1.10;;;;;;;;;;4988142;28;20050;-60
2021/09/12 01:23:42;;;;;;;2.65;0.90;;;;;;;;;;4991263;28;20042;-57
2021/09/12 01:26:08;;;;;;;2.50;0.85;;;;;;;;;;4995105;28;20559;-61
2021/09/12 01:28:34;;;;;;;2.45;0.73;;;;;;;;;;4991031;28;20037;-60
2021/09/12 01:31:00;;;;;;;2.20;0.70;;;;;;;;;;4987983;28;20427;-59
2021/09/12 01:33:26;;;;;;;5.72;0.82;;;;;;;;;;4990009;28;20038;-61
2021/09/12 01:35:52;;;;;;;2.20;0.75;;;;;;;;;;4991687;28;20049;-60
2021/09/12 01:38:18;;;;;;;2.75;0.75;;;;;;;;;;4988964;28;20042;-60
2021/09/12 01:40:44;;;;;;;2.17;0.80;;;;;;;;;;4986756;28;20042;-60
2021/09/12 01:43:10;;;;;;;2.67;1.05;;;;;;;;;;4989214;28;20053;-60
2021/09/12 01:45:36;;;;;;;2.63;0.80;;;;;;;;;;4995623;28;20553;-59
2021/09/12 01:48:02;;;;;;;2.63;0.80;;;;;;;;;;4992008;28;20042;-59
2021/09/12 01:50:29;;;;;;;2.40;0.70;;;;;;;;;;4974310;28;20041;-62
2021/09/12 01:52:55;;;;;;;6.13;0.88;;;;;;;;;;4987046;28;20050;-60
2021/09/12 01:55:21;;;;;;;2.70;0.82;;;;;;;;;;4987830;28;20046;-61
2021/09/12 01:57:47;;;;;;;3.33;1.10;;;;;;;;;;4988241;28;20109;-60
2021/09/12 02:00:13;;;;;;;2.40;0.80;;;;;;;;;;4988337;28;20964;-62
2021/09/12 02:02:39;;;;;;;4.20;1.20;;;;;;;;;;4986285;28;20814;-60
2021/09/12 02:05:06;;;;;;;3.67;0.95;;;;;;;;;;4987334;28;20462;-60
2021/09/12 02:07:32;;;;;;;7.00;1.00;;;;;;;;;;4984495;28;20415;-60
2021/09/12 02:09:58;;;;;;;4.18;1.30;;;;;;;;;;4987440;28;20092;-60
2021/09/12 02:12:24;;;;;;;3.80;1.17;;;;;;;;;;4985998;28;20049;-60
2021/09/12 02:14:50;;;;;;;3.13;0.90;;;;;;;;;;5017869;28;20094;-60
2021/09/12 02:17:16;;;;;;;2.58;0.90;;;;;;;;;;4986782;28;20116;-60
2021/09/12 02:19:42;;;;;;;2.67;1.00;;;;;;;;;;4985881;28;20076;-60
2021/09/12 02:22:08;;;;;;;2.50;0.85;;;;;;;;;;4985202;28;20059;-60
2021/09/12 02:24:34;;;;;;;4.07;0.90;;;;;;;;;;4987595;28;20050;-60
2021/09/12 02:27:00;;;;;;;3.15;1.00;;;;;;;;;;4985183;28;20507;-57
2021/09/12 02:29:25;;;;;;;5.85;1.00;;;;;;;;;;4985699;28;20104;-60
2021/09/12 02:31:52;;;;;;;3.30;1.00;;;;;;;;;;4986120;28;20077;-60
2021/09/12 02:34:18;;;;;;;2.78;1.05;;;;;;;;;;4986979;28;20737;-60
2021/09/12 02:36:44;;;;;;;2.90;0.98;;;;;;;;;;4985501;28;20038;-61
2021/09/12 02:39:10;;;;;;;2.90;1.00;;;;;;;;;;4988136;28;20140;-60
2021/09/12 02:41:36;;;;;;;2.95;1.10;;;;;;;;;;4987866;28;20050;-60
2021/09/12 02:44:02;;;;;;;3.30;1.00;;;;;;;;;;4985976;28;20569;-60
2021/09/12 02:46:28;;;;;;;3.55;1.30;;;;;;;;;;4985032;28;20404;-60
2021/09/12 02:48:54;;;;;;;3.20;1.20;;;;;;;;;;4987471;28;20048;-60
2021/09/12 02:51:19;;;;;;;4.15;1.48;;;;;;;;;;4988088;28;20042;-59
2021/09/12 02:53:45;;;;;;;3.40;1.30;;;;;;;;;;4987262;28;20149;-60
2021/09/12 02:56:11;;;;;;;3.78;1.67;;;;;;;;;;4988462;28;20074;-60
2021/09/12 02:58:37;;;;;;;4.22;1.48;;;;;;;;;;4987203;28;20039;-60
2021/09/12 03:01:03;;;;;;;3.83;1.65;;;;;;;;;;4986042;28;20507;-60
2021/09/12 03:03:28;;;;;;;3.90;1.92;;;;;;;;;;4989321;28;20034;-60
2021/09/12 03:05:55;;;;;;;4.57;1.88;;;;;;;;;;4987706;28;20133;-60
2021/09/12 03:08:21;;;;;;;4.13;2.00;;;;;;;;;;4988792;28;20476;-60
2021/09/12 03:10:47;;;;;;;3.85;1.80;;;;;;;;;;4989395;28;20128;-61
2021/09/12 03:13:13;;;;;;;4.47;2.13;;;;;;;;;;4987604;28;20034;-60
2021/09/12 03:15:39;;;;;;;5.65;2.05;;;;;;;;;;4987320;28;20408;-59
2021/09/12 03:18:05;;;;;;;4.10;2.10;;;;;;;;;;4986489;28;20077;-59
2021/09/12 03:20:31;;;;;;;4.28;2.00;;;;;;;;;;4984054;28;20053;-60
2021/09/12 03:22:57;;;;;;;4.40;2.00;;;;;;;;;;4986248;28;20046;-60
2021/09/12 03:25:23;;;;;;;4.13;1.83;;;;;;;;;;4986109;28;20097;-59
2021/09/12 03:27:51;;;;;;;4.55;1.98;;;;;;;;;;4985195;28;20058;-58
2021/09/12 03:30:17;;;;;;;3.80;1.60;;;;;;;;;;4988257;28;20038;-60
2021/09/12 03:32:43;;;;;;;4.25;1.83;;;;;;;;;;4984503;28;20060;-59
2021/09/12 03:35:09;;;;;;;3.72;1.60;;;;;;;;;;5009866;28;20030;-59
2021/09/12 03:37:35;;;;;;;3.60;1.40;;;;;;;;;;4986924;28;20043;-59
2021/09/12 03:40:01;;;;;;;3.53;1.52;;;;;;;;;;4987034;28;20391;-60
2021/09/12 03:42:26;;;;;;;3.90;1.70;;;;;;;;;;4985595;28;20046;-60
2021/09/12 03:44:52;;;;;;;5.90;1.67;;;;;;;;;;4985781;28;20777;-58
2021/09/12 03:47:18;;;;;;;5.10;1.40;;;;;;;;;;4986296;28;20111;-60
2021/09/12 03:49:44;;;;;;;5.03;1.40;;;;;;;;;;4988297;28;20935;-60
2021/09/12 03:52:10;;;;;;;3.20;1.33;;;;;;;;;;4983681;28;20092;-60
2021/09/12 03:54:36;;;;;;;3.53;1.77;;;;;;;;;;4985860;28;20066;-60
2021/09/12 03:57:01;;;;;;;3.80;1.70;;;;;;;;;;4985615;28;20656;-62
2021/09/12 03:59:27;;;;;;;4.60;1.65;;;;;;;;;;4985777;28;20145;-60
2021/09/12 04:01:53;;;;;;;3.10;1.48;;;;;;;;;;4985537;28;20051;-59
2021/09/12 04:04:19;;;;;;;5.57;2.03;;;;;;;;;;4985146;28;20033;-60
2021/09/12 04:07:04;;;;;;;4.18;1.80;;;;;;;;;;5010671;28;20056;-59
2021/09/12 04:09:30;;;;;;;5.50;1.80;;;;;;;;;;5008914;28;20041;-60
2021/09/12 04:11:56;;;;;;;6.70;1.75;;;;;;;;;;5013350;28;20037;-58
2021/09/12 04:14:22;;;;;;;3.80;2.00;;;;;;;;;;5014569;28;20045;-61
2021/09/12 04:16:48;;;;;;;5.32;2.22;;;;;;;;;;5014600;28;20149;-61
2021/09/12 04:19:13;;;;;;;5.20;2.22;;;;;;;;;;5012753;28;20046;-60
2021/09/12 04:21:39;;;;;;;7.70;2.38;;;;;;;;;;5010532;28;20069;-59
2021/09/12 04:24:05;;;;;;;7.20;1.90;;;;;;;;;;5013492;28;20080;-59
2021/09/12 04:26:31;;;;;;;4.20;2.08;;;;;;;;;;5012454;28;20075;-59
2021/09/12 04:28:57;;;;;;;5.05;2.30;;;;;;;;;;5013355;28;20046;-60
2021/09/12 04:31:23;;;;;;;5.75;2.13;;;;;;;;;;5011403;28;20136;-60
2021/09/12 04:33:48;;;;;;;5.65;2.20;;;;;;;;;;5013885;28;20041;-59
2021/09/12 04:36:14;;;;;;;4.35;2.08;;;;;;;;;;4995380;28;20585;-60
2021/09/12 04:38:40;;;;;;;5.38;2.15;;;;;;;;;;5012358;28;20038;-61
2021/09/12 04:41:07;;;;;;;4.20;1.92;;;;;;;;;;5012553;28;20038;-58
2021/09/12 04:43:33;;;;;;;5.32;1.90;;;;;;;;;;5010201;28;20033;-60
2021/09/12 04:45:59;;;;;;;3.75;1.92;;;;;;;;;;4989881;28;20121;-60
2021/09/12 04:48:25;;;;;;;5.13;1.90;;;;;;;;;;4988719;28;20638;-61
2021/09/12 04:50:52;;;;;;;3.80;1.85;;;;;;;;;;4989221;28;20121;-62
2021/09/12 04:53:18;;;;;;;4.40;2.00;;;;;;;;;;4989029;28;20527;-60
2021/09/12 04:55:44;;;;;;;3.95;1.80;;;;;;;;;;4989261;28;20042;-60
2021/09/12 04:58:09;;;;;;;5.28;2.30;;;;;;;;;;4989436;28;20038;-61
2021/09/12 05:00:35;;;;;;;6.40;2.15;;;;;;;;;;4986953;28;20046;-60
2021/09/12 05:03:01;;;;;;;4.65;2.38;;;;;;;;;;4989643;28;20052;-60
2021/09/12 05:05:27;;;;;;;5.15;2.70;;;;;;;;;;4989347;28;20069;-59
2021/09/12 05:07:54;;;;;;;4.20;2.00;;;;;;;;;;4989476;28;20038;-61
2021/09/12 05:10:21;;;;;;;5.20;2.40;;;;;;;;;;4988611;28;20253;-58
2021/09/12 05:12:47;;;;;;;4.28;2.10;;;;;;;;;;4990029;28;20408;-61
2021/09/12 05:15:12;;;;;;;5.80;2.83;;;;;;;;;;4989706;28;20173;-60
2021/09/12 05:17:38;;;;;;;4.53;2.45;;;;;;;;;;4988977;28;20105;-61
2021/09/12 05:20:05;;;;;;;5.32;2.53;;;;;;;;;;4987237;28;20403;-62
2021/09/12 05:22:30;;;;;;;6.47;2.88;;;;;;;;;;4988395;28;20084;-62
2021/09/12 05:24:56;;;;;;;5.72;3.05;;;;;;;;;;4987901;28;20438;-61
2021/09/12 05:27:22;;;;;;;5.70;3.25;;;;;;;;;;4987524;28;20602;-61
2021/09/12 05:29:48;;;;;;;4.50;2.67;;;;;;;;;;4987534;28;20049;-61
2021/09/12 05:32:14;;;;;;;5.50;3.17;;;;;;;;;;4988309;28;20377;-60
2021/09/12 05:34:40;;;;;;;6.60;3.08;;;;;;;;;;4990013;28;20136;-59
2021/09/12 05:37:06;;;;;;;4.82;2.90;;;;;;;;;;4990415;28;20073;-61
2021/09/12 05:39:32;;;;;;;5.25;3.30;;;;;;;;;;4989860;28;20049;-60
2021/09/12 05:41:57;;;;;;;7.40;3.15;;;;;;;;;;4995329;28;20049;-60
2021/09/12 05:44:23;;;;;;;5.15;3.08;;;;;;;;;;4991403;28;20570;-61
2021/09/12 05:46:51;;;;;;;5.70;3.40;;;;;;;;;;4988981;28;20164;-62
2021/09/12 05:49:18;;;;;;;5.82;3.45;;;;;;;;;;4987656;28;20379;-60
2021/09/12 05:51:44;;;;;;;5.30;2.95;;;;;;;;;;4986324;28;20088;-60
2021/09/12 05:54:09;;;;;;;7.28;3.47;;;;;;;;;;4987128;28;20038;-60
2021/09/12 05:56:35;;;;;;;7.38;3.65;;;;;;;;;;4987341;28;20586;-61
2021/09/12 05:59:01;;;;;;;5.50;3.30;;;;;;;;;;5000980;28;20755;-60
2021/09/12 06:01:27;;;;;;;6.35;3.45;;;;;;;;;;4995229;28;20046;-61
2021/09/12 06:03:53;;;;;;;6.40;3.50;;;;;;;;;;4988134;28;20110;-61
2021/09/12 06:06:19;;;;;;;7.57;4.00;;;;;;;;;;4986993;28;20608;-61
2021/09/12 06:08:44;;;;;;;5.78;3.65;;;;;;;;;;4987843;28;20057;-62
2021/09/12 06:11:10;;;;;;;7.65;3.67;;;;;;;;;;4988404;28;20038;-61
2021/09/12 06:13:39;;;;;;;5.80;3.75;;;;;;;;;;4989166;28;20050;-61
2021/09/12 06:16:06;;;;;;;10.68;4.22;;;;;;;;;;4988594;28;20091;-61
2021/09/12 06:18:32;;;;;;;5.80;3.35;;;;;;;;;;4988766;28;20146;-61
2021/09/12 06:20:58;;;;;;;6.22;3.95;;;;;;;;;;4989244;28;20052;-61
2021/09/12 06:23:24;;;;;;;6.05;3.65;;;;;;;;;;4994647;28;20041;-61
2021/09/12 06:25:50;;;;;;;6.15;3.65;;;;;;;;;;5001783;28;20129;-61
2021/09/12 06:28:15;;;;;;;8.02;4.03;;;;;;;;;;4988251;28;20122;-61
2021/09/12 06:30:42;;;;;;;6.22;3.72;;;;;;;;;;4986843;28;20069;-61
2021/09/12 06:33:07;;;;;;;5.13;2.97;;;;;;;;;;4989798;28;20213;-61
2021/09/12 06:35:33;;;;;;;7.18;3.17;;;;;;;;;;4987949;28;20113;-61
2021/09/12 06:37:59;;;;;;;6.78;4.00;;;;;;;;;;4985408;28;20426;-61
2021/09/12 06:40:30;;;;;;;5.25;3.28;;;;;;;;;;4988793;28;20050;-60
2021/09/12 06:42:57;;;;;;;6.43;3.60;;;;;;;;;;4989025;28;20403;-61
2021/09/12 06:45:22;;;;;;;5.57;3.40;;;;;;;;;;4988406;28;20128;-63
2021/09/12 06:47:48;;;;;;;6.80;3.65;;;;;;;;;;4990622;28;20542;-62
2021/09/12 06:50:14;;;;;;;7.28;3.30;;;;;;;;;;4988213;28;20117;-60
2021/09/12 06:52:40;;;;;;;6.57;3.50;;;;;;;;;;4986899;28;20038;-60
2021/09/12 06:55:06;;;;;;;6.18;3.17;;;;;;;;;;4986315;28;20057;-60
2021/09/12 06:57:32;;;;;;;5.63;3.72;;;;;;;;;;4988358;28;20172;-61
2021/09/12 06:59:58;;;;;;;8.00;3.65;;;;;;;;;;5019643;28;20053;-60
2021/09/12 07:02:23;;;;;;;5.82;3.50;;;;;;;;;;4985376;28;21096;-60
2021/09/12 07:04:49;;;;;;;5.78;3.53;;;;;;;;;;4987987;28;20372;-60
2021/09/12 07:07:15;;;;;;;6.40;3.63;;;;;;;;;;4987696;28;20081;-61
2021/09/12 07:09:41;;;;;;;7.63;4.05;;;;;;;;;;4985677;28;20099;-61
2021/09/12 07:12:08;;;;;;;6.97;4.13;;;;;;;;;;4987119;28;20087;-60
2021/09/12 07:14:34;;;;;;;6.20;3.92;;;;;;;;;;4986444;28;20042;-61
2021/09/12 07:17:00;;;;;;;6.40;4.05;;;;;;;;;;4986020;28;20056;-61
2021/09/12 07:19:26;;;;;;;6.18;3.58;;;;;;;;;;4985125;28;20042;-61
2021/09/12 07:21:52;;;;;;;5.70;3.45;;;;;;;;;;4985705;28;20141;-61
2021/09/12 07:24:18;;;;;;;6.82;3.95;;;;;;;;;;4984938;28;20041;-60
2021/09/12 07:26:44;;;;;;;6.68;4.00;;;;;;;;;;4987061;28;20042;-60
2021/09/12 07:29:09;;;;;;;7.25;4.32;;;;;;;;;;4986790;28;20038;-60
2021/09/12 07:31:35;;;;;;;7.40;3.88;;;;;;;;;;4985431;28;20038;-60
2021/09/12 07:34:02;;;;;;;6.63;4.05;;;;;;;;;;4986602;28;20578;-61
2021/09/12 07:36:29;;;;;;;7.22;4.07;;;;;;;;;;4986041;28;20050;-60
2021/09/12 07:38:54;;;;;;;8.60;4.72;;;;;;;;;;4986207;28;20045;-61
2021/09/12 07:41:20;;;;;;;8.43;4.65;;;;;;;;;;4985154;28;20068;-62
2021/09/12 07:43:46;;;;;;;7.50;3.92;;;;;;;;;;4994879;28;20125;-61
2021/09/12 07:46:12;;;;;;;8.02;4.22;;;;;;;;;;4988901;28;20120;-61
2021/09/12 07:48:38;;;;;;;7.93;4.55;;;;;;;;;;4989919;28;20046;-62
2021/09/12 07:51:05;;;;;;;7.18;4.53;;;;;;;;;;4990412;28;20038;-61
2021/09/12 07:53:31;;;;;;;7.45;4.60;;;;;;;;;;4993138;28;21956;-61
2021/09/12 07:55:57;;;;;;;8.98;5.07;;;;;;;;;;4995133;28;20036;-61
2021/09/12 07:58:23;;;;;;;6.97;4.50;;;;;;;;;;4990758;28;20072;-61
2021/09/12 08:00:49;;;;;;;8.45;5.18;;;;;;;;;;4990149;28;20045;-61
2021/09/12 08:03:15;;;;;;;11.65;5.07;;;;;;;;;;4991999;28;20066;-61
2021/09/12 08:05:42;;;;;;;10.68;5.50;;;;;;;;;;4990782;28;20038;-60
2021/09/12 08:08:08;;;;;;;12.50;5.53;;;;;;;;;;4991580;28;20248;-60
2021/09/12 08:10:34;;;;;;;9.30;5.57;;;;;;;;;;4987972;28;20047;-60
2021/09/12 08:13:00;;;;;;;7.53;4.70;;;;;;;;;;4987845;28;20057;-58
2021/09/12 08:15:26;;;;;;;9.25;4.93;;;;;;;;;;4987352;28;20057;-60
2021/09/12 08:17:51;;;;;;;8.35;5.15;;;;;;;;;;4988727;28;20046;-59
2021/09/12 08:20:17;;;;;;;7.78;5.30;;;;;;;;;;4987567;28;20661;-59
2021/09/12 08:22:43;;;;;;;8.57;4.68;;;;;;;;;;4989169;28;20054;-60
2021/09/12 08:25:12;;;;;;;9.63;5.15;;;;;;;;;;4987759;28;20096;-62
2021/09/12 08:27:38;;;;;;;8.00;5.25;;;;;;;;;;4988322;28;20042;-60
2021/09/12 08:30:05;;;;;;;9.48;5.57;;;;;;;;;;4989500;28;21050;-59
2021/09/12 08:32:31;;;;;;;11.70;5.10;;;;;;;;;;4988085;28;20065;-60
2021/09/12 08:34:56;;;;;;;10.10;5.88;;;;;;;;;;4988527;28;20038;-59
2021/09/12 08:37:22;;;;;;;9.57;5.10;;;;;;;;;;4988298;28;20158;-58
2021/09/12 08:39:48;;;;;;;9.18;5.38;;;;;;;;;;4988302;28;20574;-58
2021/09/12 08:42:15;;;;;;;9.85;5.57;;;;;;;;;;4988194;28;20399;-60
2021/09/12 08:44:45;;;;;;;7.85;4.95;;;;;;;;;;4988037;28;20062;-59
2021/09/12 08:47:11;;;;;;;8.15;4.78;;;;;;;;;;4987837;28;20051;-59
2021/09/12 08:49:37;;;;;;;8.38;5.18;;;;;;;;;;4988274;28;20366;-59
2021/09/12 08:52:03;;;;;;;14.00;6.38;;;;;;;;;;4985541;28;20034;-59
2021/09/12 08:54:28;;;;;;;8.57;5.68;;;;;;;;;;4986343;28;20035;-58
2021/09/12 08:56:54;;;;;;;10.60;5.10;;;;;;;;;;4987845;28;20034;-58
2021/09/12 08:59:24;;;;;;;9.98;5.50;;;;;;;;;;4986663;28;20046;-58
2021/09/12 09:01:52;;;;;;;9.07;5.05;;;;;;;;;;4987237;28;20707;-58
2021/09/12 09:04:18;;;;;;;10.75;5.60;;;;;;;;;;4984416;28;20030;-56
2021/09/12 09:06:44;;;;;;;10.25;5.93;;;;;;;;;;4987877;28;20057;-58
2021/09/12 09:09:10;;;;;;;10.88;5.65;;;;;;;;;;4987962;28;20046;-58
2021/09/12 09:11:36;;;;;;;11.55;5.85;;;;;;;;;;4985215;28;20038;-58
2021/09/12 09:14:13;;;;;;;12.57;6.10;;;;;;;;;;4987272;28;20122;-58
2021/09/12 09:16:39;;;;;;;32.25;6.80;;;;;;;;;;4988160;28;20463;-59
2021/09/12 09:19:05;;;;;;;9.48;6.00;;;;;;;;;;4987117;28;20265;-57
2021/09/12 09:21:32;;;;;;;9.98;6.07;;;;;;;;;;4985247;28;20206;-57
2021/09/12 09:24:17;;;;;;;14.40;6.20;;;;;;;;;;4988527;28;20395;-58
2021/09/12 09:26:47;;;;;;;34.92;7.40;;;;;;;;;;4994730;28;20459;-57
2021/09/12 09:29:14;;;;;;;17.83;6.32;;;;;;;;;;4988073;28;20052;-58
2021/09/12 09:31:41;;;;;;;13.85;6.70;;;;;;;;;;4986207;28;20044;-59
2021/09/12 09:34:20;;;;;;;15.65;6.80;;;;;;;;;;4985546;28;20075;-56
2021/09/12 09:36:47;;;;;;;18.90;7.05;;;;;;;;;;4988239;28;20046;-59
2021/09/12 09:39:14;;;;;;;20.55;8.75;;;;;;;;;;4988091;28;20072;-58
2021/09/12 09:41:40;;;;;;;13.90;7.60;;;;;;;;;;4985388;28;20508;-58
2021/09/12 09:44:11;;;;;;;13.88;7.63;;;;;;;;;;4987983;28;20041;-59
2021/09/12 09:46:41;;;;;;;16.23;7.47;;;;;;;;;;4985801;28;20041;-56
2021/09/12 09:49:22;;;;;;;15.13;7.45;;;;;;;;;;4989150;28;20037;-58
2021/09/12 09:51:52;;;;;;;15.50;7.65;;;;;;;;;;4986063;28;20047;-57
2021/09/12 09:54:18;;;;;;;12.80;7.97;;;;;;;;;;4988225;28;20049;-58
2021/09/12 09:56:45;;;;;;;43.97;10.13;;;;;;;;;;4992992;28;20053;-58
2021/09/12 09:59:13;;;;;;;18.50;8.40;;;;;;;;;;4986999;28;22079;-59
2021/09/12 10:01:39;;;;;;;24.38;9.32;;;;;;;;;;4987416;28;20913;-59
2021/09/12 10:04:05;;;;;;;21.08;9.30;;;;;;;;;;4988813;28;20037;-59
2021/09/12 10:06:31;;;;;;;48.75;9.25;;;;;;;;;;4988391;28;20042;-58
2021/09/12 10:08:57;;;;;;;29.48;9.88;;;;;;;;;;4987642;28;20041;-58
2021/09/12 10:11:23;;;;;;;54.90;11.48;;;;;;;;;;4985585;28;20078;-58
2021/09/12 10:13:49;;;;;;;39.40;8.82;;;;;;;;;;4987706;28;20129;-59
2021/09/12 10:16:17;;;;;;;40.67;9.60;;;;;;;;;;4990152;28;20046;-60
2021/09/12 10:18:43;;;;;;;51.20;10.18;;;;;;;;;;4987842;28;20042;-59
2021/09/12 10:21:30;;;;;;;30.02;9.52;;;;;;;;;;4988778;28;20068;-58
2021/09/12 10:23:56;;;;;;;87.25;11.35;;;;;;;;;;4994588;28;20070;-59
2021/09/12 10:26:30;;;;;;;82.70;10.57;;;;;;;;;;4987658;28;20046;-59
2021/09/12 10:28:55;;;;;;;61.85;10.23;;;;;;;;;;4988096;28;20137;-58
2021/09/12 10:31:27;;;;;;;43.40;9.80;;;;;;;;;;4986655;28;20082;-60
2021/09/12 10:34:06;;;;;;;44.53;9.70;;;;;;;;;;4986087;28;20057;-58
2021/09/12 10:36:32;;;;;;;27.85;8.68;;;;;;;;;;4984052;28;20119;-58
2021/09/12 10:39:18;;;;;;;53.83;9.63;;;;;;;;;;4985704;28;20252;-59
2021/09/12 10:42:03;;;;;;;78.97;10.13;;;;;;;;;;4984925;28;20128;-59
2021/09/12 10:44:29;;;;;;;90.70;11.35;;;;;;;;;;4986653;28;20085;-59
2021/09/12 10:47:04;;;;;;;69.95;10.23;;;;;;;;;;4986692;28;21954;-57
2021/09/12 10:49:31;;;;;;;56.55;8.85;;;;;;;;;;4982738;28;20030;-59
2021/09/12 10:51:56;;;;;;;60.85;10.18;;;;;;;;;;4984986;28;20089;-59
2021/09/12 10:54:22;;;;;;;42.40;9.93;;;;;;;;;;4985840;28;20530;-59
2021/09/12 10:57:02;;;;;;;63.58;10.68;;;;;;;;;;4986552;28;20038;-58
2021/09/12 10:59:28;;;;;;;67.45;11.32;;;;;;;;;;4986228;28;20089;-57
2021/09/12 11:01:55;;;;;;;63.55;11.25;;;;;;;;;;4986910;28;20050;-59
2021/09/12 11:04:27;;;;;;;29.27;9.40;;;;;;;;;;4986842;28;20133;-61
2021/09/12 11:06:57;;;;;;;28.65;8.57;;;;;;;;;;4988196;28;20076;-62
2021/09/12 11:09:23;;;;;;;52.58;10.70;;;;;;;;;;4986655;28;20348;-63
2021/09/12 11:11:59;;;;;;;74.22;13.02;;;;;;;;;;4987320;28;20049;-63
2021/09/12 11:14:26;;;;;;;66.93;11.27;;;;;;;;;;4988171;28;20490;-62
2021/09/12 11:16:51;;;;;;;53.00;12.18;;;;;;;;;;4986651;28;20188;-62
2021/09/12 11:19:17;;;;;;;74.05;13.02;;;;;;;;;;4986864;28;22066;-62
2021/09/12 11:21:48;;;;;;;91.00;12.65;;;;;;;;;;5017175;28;20054;-63
2021/09/12 11:24:14;;;;;;;66.63;11.88;;;;;;;;;;4985707;28;20946;-62
2021/09/12 11:26:47;;;;;;;52.08;12.27;;;;;;;;;;4987357;28;20038;-63
2021/09/12 11:29:14;;;;;;;50.13;11.00;;;;;;;;;;4987781;28;20034;-64
2021/09/12 11:31:42;;;;;;;58.83;10.98;;;;;;;;;;4986466;28;20046;-63
2021/09/12 11:34:08;;;;;;;55.15;11.20;;;;;;;;;;4987977;28;20051;-62
2021/09/12 11:36:44;;;;;;;33.80;9.98;;;;;;;;;;4990099;28;20042;-62
2021/09/12 11:39:10;;;;;;;29.02;9.70;;;;;;;;;;4991361;28;20848;-63
2021/09/12 11:41:35;;;;;;;74.93;13.35;;;;;;;;;;4985361;28;20146;-63
2021/09/12 11:44:02;;;;;;;87.18;12.63;;;;;;;;;;4988134;28;20423;-62
2021/09/12 11:46:32;;;;;;;47.25;11.25;;;;;;;;;;4987362;28;20069;-62
2021/09/12 11:48:59;;;;;;;61.95;10.73;;;;;;;;;;4997001;28;20951;-61
2021/09/12 11:51:25;;;;;;;48.03;9.98;;;;;;;;;;4986635;28;20041;-61
2021/09/12 11:54:03;;;;;;;71.97;11.68;;;;;;;;;;4985000;28;20038;-63
2021/09/12 11:56:28;;;;;;;34.35;9.85;;;;;;;;;;4985605;28;20053;-61
2021/09/12 11:58:54;;;;;;;33.63;9.90;;;;;;;;;;4985954;28;20057;-62
2021/09/12 12:01:20;;;;;;;65.50;10.82;;;;;;;;;;4985658;28;20536;-59
2021/09/12 12:03:46;;;;;;;38.13;10.45;;;;;;;;;;4988397;28;20038;-59
2021/09/12 12:06:12;;;;;;;27.83;9.07;;;;;;;;;;4989254;28;20431;-59
2021/09/12 12:08:57;;;;;;;33.47;9.85;;;;;;;;;;4984063;28;20042;-58
2021/09/12 12:11:23;;;;;;;25.13;10.30;;;;;;;;;;4984037;28;20046;-58
2021/09/12 12:13:49;;;;;;;31.75;9.65;;;;;;;;;;4984974;28;20056;-56
2021/09/12 12:16:15;;;;;;;33.60;9.13;;;;;;;;;;4985432;28;20054;-58
2021/09/12 12:18:41;;;;;;;35.10;9.80;;;;;;;;;;4984218;28;20133;-59
2021/09/12 12:21:13;;;;;;;16.40;9.52;;;;;;;;;;4982879;28;20042;-60
2021/09/12 12:23:41;;;;;;;28.23;9.20;;;;;;;;;;4984039;28;20054;-59
2021/09/12 12:26:18;;;;;;;21.13;9.75;;;;;;;;;;4986190;28;20042;-60
2021/09/12 12:28:55;;;;;;;34.00;10.25;;;;;;;;;;4984500;28;20044;-63
2021/09/12 12:31:21;;;;;;;30.77;10.88;;;;;;;;;;4985888;28;20030;-62
2021/09/12 12:33:47;;;;;;;18.17;9.70;;;;;;;;;;4989406;28;20097;-62
2021/09/12 12:36:17;;;;;;;23.98;9.95;;;;;;;;;;5019404;28;20037;-61
2021/09/12 12:38:43;;;;;;;54.65;10.75;;;;;;;;;;4986787;28;20053;-62
2021/09/12 12:41:11;;;;;;;37.17;10.48;;;;;;;;;;4987522;28;20076;-61
2021/09/12 12:43:38;;;;;;;33.92;10.70;;;;;;;;;;4988366;28;20371;-62
2021/09/12 12:46:04;;;;;;;54.83;11.70;;;;;;;;;;4988881;28;20068;-61
2021/09/12 12:48:31;;;;;;;21.58;10.07;;;;;;;;;;4987512;28;20053;-62
2021/09/12 12:50:57;;;;;;;27.42;11.70;;;;;;;;;;4987515;28;20093;-62
2021/09/12 12:53:30;;;;;;;53.63;12.60;;;;;;;;;;4988283;28;20133;-62
2021/09/12 12:55:57;;;;;;;39.80;11.05;;;;;;;;;;4988488;28;20053;-62
2021/09/12 12:58:23;;;;;;;33.42;11.05;;;;;;;;;;4988253;28;20049;-61
2021/09/12 13:00:53;;;;;;;71.80;12.93;;;;;;;;;;4995330;28;20045;-60
2021/09/12 13:03:19;;;;;;;48.50;11.02;;;;;;;;;;4986580;28;20050;-60
2021/09/12 13:05:45;;;;;;;67.40;12.20;;;;;;;;;;4987691;28;20042;-60
2021/09/12 13:08:15;;;;;;;82.05;12.80;;;;;;;;;;4987302;28;20038;-61
2021/09/12 13:10:41;;;;;;;35.33;10.65;;;;;;;;;;4986939;28;20085;-61
2021/09/12 13:13:08;;;;;;;32.72;10.20;;;;;;;;;;4988447;28;20038;-62
2021/09/12 13:15:35;;;;;;;48.45;11.52;;;;;;;;;;4987197;28;20093;-60
2021/09/12 13:18:00;;;;;;;64.63;13.23;;;;;;;;;;4986782;28;20049;-61
2021/09/12 13:20:26;;;;;;;35.75;11.13;;;;;;;;;;4985476;28;20042;-61
2021/09/12 13:22:52;;;;;;;45.38;11.27;;;;;;;;;;4987769;28;20042;-62
2021/09/12 13:25:18;;;;;;;43.00;11.23;;;;;;;;;;4985397;28;20038;-61
2021/09/12 13:27:44;;;;;;;44.33;11.07;;;;;;;;;;4987062;28;20095;-61
2021/09/12 13:30:10;;;;;;;30.35;12.05;;;;;;;;;;4986403;28;20497;-62
2021/09/12 13:32:35;;;;;;;19.33;10.57;;;;;;;;;;4984499;28;20038;-61
2021/09/12 13:35:01;;;;;;;20.73;10.95;;;;;;;;;;4987761;28;20478;-61
2021/09/12 13:37:27;;;;;;;16.05;9.98;;;;;;;;;;5003148;28;20042;-60
2021/09/12 13:39:53;;;;;;;17.30;10.02;;;;;;;;;;4987102;28;20107;-61
2021/09/12 13:42:21;;;;;;;15.20;8.65;;;;;;;;;;4987271;28;20444;-60
2021/09/12 13:44:47;;;;;;;13.70;8.27;;;;;;;;;;4987651;28;20100;-60
2021/09/12 13:47:13;;;;;;;14.18;8.13;;;;;;;;;;4996103;28;20045;-61
2021/09/12 13:49:39;;;;;;;12.95;7.57;;;;;;;;;;4985448;28;20053;-62
2021/09/12 13:52:05;;;;;;;14.82;8.38;;;;;;;;;;4987832;28;20471;-61
2021/09/12 13:54:31;;;;;;;15.48;9.02;;;;;;;;;;4987817;28;20046;-57
2021/09/12 13:56:57;;;;;;;13.68;8.77;;;;;;;;;;4987321;28;20116;-60
2021/09/12 13:59:23;;;;;;;17.08;9.30;;;;;;;;;;4988918;28;20141;-59
2021/09/12 14:01:48;;;;;;;15.07;8.48;;;;;;;;;;4987565;28;20050;-60
2021/09/12 14:04:14;;;;;;;15.70;9.48;;;;;;;;;;4989621;28;20580;-61
2021/09/12 14:06:40;;;;;;;14.10;9.00;;;;;;;;;;4986727;28;20117;-60
2021/09/12 14:09:06;;;;;;;11.93;7.90;;;;;;;;;;4989078;28;20038;-59
2021/09/12 14:11:32;;;;;;;13.40;7.78;;;;;;;;;;4985869;28;20044;-59
2021/09/12 14:13:58;;;;;;;14.75;8.75;;;;;;;;;;4987875;28;20038;-58
2021/09/12 14:16:24;;;;;;;14.13;8.43;;;;;;;;;;4985852;28;20058;-57
2021/09/12 14:18:49;;;;;;;16.83;9.52;;;;;;;;;;4985788;28;20039;-59
2021/09/12 14:21:17;;;;;;;15.55;8.77;;;;;;;;;;4993158;28;20067;-59
2021/09/12 14:23:45;;;;;;;15.70;9.85;;;;;;;;;;4994003;28;20104;-58
2021/09/12 14:26:11;;;;;;;14.07;9.63;;;;;;;;;;4986661;28;20038;-59
2021/09/12 14:28:37;;;;;;;15.93;10.18;;;;;;;;;;4986198;28;20053;-58
2021/09/12 14:31:03;;;;;;;16.48;9.63;;;;;;;;;;4992381;28;20049;-59
2021/09/12 14:33:29;;;;;;;21.17;9.85;;;;;;;;;;4986652;28;20054;-60